sensor_id;sensor_type;location;lat;lon;timestamp;pressure;altitude;pressure_sealevel;temperature;humidity
48244;BME280;34053;51.088;6.572;2022-11-09T00:02:07;100122.94;;;14.82;66.94
48244;BME280;34053;51.088;6.572;2022-11-09T00:04:38;100120.22;;;14.84;66.88
48244;BME280;34053;51.088;6.572;2022-11-09T00:07:09;100116.81;;;14.82;66.92
48244;BME280;34053;51.088;6.572;2022-11-09T00:09:39;100107.44;;;14.76;66.86
48244;BME280;34053;51.088;6.572;2022-11-09T00:12:10;100111.84;;;14.75;67.09
48244;BME280;34053;51.088;6.572;2022-11-09T00:14:40;100103.34;;;14.70;67.01
48244;BME280;34053;51.088;6.572;2022-11-09T00:17:11;100107.34;;;14.77;66.83
48244;BME280;34053;51.088;6.572;2022-11-09T00:19:41;100108.97;;;14.80;66.75
48244;BME280;34053;51.088;6.572;2022-11-09T00:22:12;100106.75;;;14.72;67.03
48244;BME280;34053;51.088;6.572;2022-11-09T00:24:42;100110.25;;;14.73;66.73
48244;BME280;34053;51.088;6.572;2022-11-09T00:27:13;100109.75;;;14.66;67.17
48244;BME280;34053;51.088;6.572;2022-11-09T00:29:43;100105.31;;;14.67;66.83
48244;BME280;34053;51.088;6.572;2022-11-09T00:32:14;100104.91;;;14.57;67.34
48244;BME280;34053;51.088;6.572;2022-11-09T00:34:44;100098.06;;;14.70;66.97
48244;BME280;34053;51.088;6.572;2022-11-09T00:37:15;100093.81;;;14.68;66.73
48244;BME280;34053;51.088;6.572;2022-11-09T00:39:45;100092.16;;;14.65;66.70
48244;BME280;34053;51.088;6.572;2022-11-09T00:42:16;100094.66;;;14.68;66.96
48244;BME280;34053;51.088;6.572;2022-11-09T00:44:46;100099.47;;;14.60;66.56
48244;BME280;34053;51.088;6.572;2022-11-09T00:47:17;100104.75;;;14.60;66.59
48244;BME280;34053;51.088;6.572;2022-11-09T00:49:47;100106.88;;;14.53;66.65
48244;BME280;34053;51.088;6.572;2022-11-09T00:52:18;100108.06;;;14.47;66.50
48244;BME280;34053;51.088;6.572;2022-11-09T00:54:49;100105.31;;;14.49;66.72
48244;BME280;34053;51.088;6.572;2022-11-09T00:57:19;100103.38;;;14.53;66.73
48244;BME280;34053;51.088;6.572;2022-11-09T00:59:50;100107.38;;;14.44;66.24
48244;BME280;34053;51.088;6.572;2022-11-09T01:02:21;100110.44;;;14.52;65.92
48244;BME280;34053;51.088;6.572;2022-11-09T01:04:51;100106.59;;;14.42;65.79
48244;BME280;34053;51.088;6.572;2022-11-09T01:07:23;100104.97;;;14.39;66.23
48244;BME280;34053;51.088;6.572;2022-11-09T01:09:54;100106.13;;;14.33;66.00
48244;BME280;34053;51.088;6.572;2022-11-09T01:12:24;100108.31;;;14.25;66.22
48244;BME280;34053;51.088;6.572;2022-11-09T01:14:55;100115.16;;;14.29;66.25
48244;BME280;34053;51.088;6.572;2022-11-09T01:17:25;100114.13;;;14.32;66.21
48244;BME280;34053;51.088;6.572;2022-11-09T01:19:56;100121.28;;;14.30;66.25
48244;BME280;34053;51.088;6.572;2022-11-09T01:22:26;100121.97;;;14.33;66.22
48244;BME280;34053;51.088;6.572;2022-11-09T01:24:57;100118.88;;;14.25;66.30
48244;BME280;34053;51.088;6.572;2022-11-09T01:27:27;100125.78;;;14.28;66.18
48244;BME280;34053;51.088;6.572;2022-11-09T01:29:58;100129.44;;;14.25;66.27
48244;BME280;34053;51.088;6.572;2022-11-09T01:32:31;100133.69;;;14.28;66.39
48244;BME280;34053;51.088;6.572;2022-11-09T01:35:08;100137.19;;;14.28;66.14
48244;BME280;34053;51.088;6.572;2022-11-09T01:37:39;100138.38;;;14.23;66.21
48244;BME280;34053;51.088;6.572;2022-11-09T01:40:10;100138.97;;;14.28;66.34
48244;BME280;34053;51.088;6.572;2022-11-09T01:42:41;100141.00;;;14.23;66.45
48244;BME280;34053;51.088;6.572;2022-11-09T01:47:53;100134.63;;;14.27;66.26
48244;BME280;34053;51.088;6.572;2022-11-09T01:50:42;100133.88;;;14.25;66.38
48244;BME280;34053;51.088;6.572;2022-11-09T01:53:19;100134.94;;;14.21;66.54
48244;BME280;34053;51.088;6.572;2022-11-09T01:55:53;100128.59;;;14.25;66.31
48244;BME280;34053;51.088;6.572;2022-11-09T01:58:31;100130.81;;;14.32;65.83
48244;BME280;34053;51.088;6.572;2022-11-09T02:01:03;100132.16;;;14.24;65.87
48244;BME280;34053;51.088;6.572;2022-11-09T02:03:45;100125.94;;;14.25;66.17
48244;BME280;34053;51.088;6.572;2022-11-09T02:06:17;100131.63;;;14.17;66.31
48244;BME280;34053;51.088;6.572;2022-11-09T02:08:53;100136.75;;;14.20;66.21
48244;BME280;34053;51.088;6.572;2022-11-09T02:11:25;100124.25;;;14.24;66.10
48244;BME280;34053;51.088;6.572;2022-11-09T02:13:59;100127.81;;;14.23;66.01
48244;BME280;34053;51.088;6.572;2022-11-09T02:16:30;100117.84;;;14.28;65.49
48244;BME280;34053;51.088;6.572;2022-11-09T02:19:01;100122.44;;;14.24;65.89
48244;BME280;34053;51.088;6.572;2022-11-09T02:21:31;100126.88;;;14.24;65.69
48244;BME280;34053;51.088;6.572;2022-11-09T02:24:02;100125.78;;;14.10;66.05
48244;BME280;34053;51.088;6.572;2022-11-09T02:26:46;100130.78;;;14.16;66.04
48244;BME280;34053;51.088;6.572;2022-11-09T02:29:21;100132.91;;;14.26;66.02
48244;BME280;34053;51.088;6.572;2022-11-09T02:31:56;100131.94;;;14.11;65.99
48244;BME280;34053;51.088;6.572;2022-11-09T02:34:29;100129.75;;;14.19;66.00
48244;BME280;34053;51.088;6.572;2022-11-09T02:36:59;100125.31;;;14.20;65.98
48244;BME280;34053;51.088;6.572;2022-11-09T02:39:30;100125.16;;;14.23;66.08
48244;BME280;34053;51.088;6.572;2022-11-09T02:42:07;100128.81;;;14.20;66.04
48244;BME280;34053;51.088;6.572;2022-11-09T02:44:48;100134.25;;;14.17;65.96
48244;BME280;34053;51.088;6.572;2022-11-09T02:47:21;100121.75;;;14.21;66.20
48244;BME280;34053;51.088;6.572;2022-11-09T02:49:52;100133.31;;;14.18;66.14
48244;BME280;34053;51.088;6.572;2022-11-09T02:52:23;100131.97;;;14.27;66.12
48244;BME280;34053;51.088;6.572;2022-11-09T02:54:53;100131.38;;;14.22;65.90
48244;BME280;34053;51.088;6.572;2022-11-09T02:57:24;100139.44;;;14.19;66.07
48244;BME280;34053;51.088;6.572;2022-11-09T02:59:55;100140.06;;;14.24;65.99
48244;BME280;34053;51.088;6.572;2022-11-09T03:02:25;100138.28;;;14.24;66.23
48244;BME280;34053;51.088;6.572;2022-11-09T03:04:56;100137.59;;;14.21;66.24
48244;BME280;34053;51.088;6.572;2022-11-09T03:07:26;100142.53;;;14.27;66.12
48244;BME280;34053;51.088;6.572;2022-11-09T03:09:57;100130.44;;;14.23;65.98
48244;BME280;34053;51.088;6.572;2022-11-09T03:12:27;100133.00;;;14.24;66.01
48244;BME280;34053;51.088;6.572;2022-11-09T03:15:00;100144.72;;;14.19;66.32
48244;BME280;34053;51.088;6.572;2022-11-09T03:17:32;100141.16;;;14.20;66.17
48244;BME280;34053;51.088;6.572;2022-11-09T03:20:03;100134.34;;;14.15;66.42
48244;BME280;34053;51.088;6.572;2022-11-09T03:22:36;100138.59;;;14.18;66.75
48244;BME280;34053;51.088;6.572;2022-11-09T03:25:07;100142.31;;;14.14;66.34
48244;BME280;34053;51.088;6.572;2022-11-09T03:27:37;100142.78;;;14.22;66.22
48244;BME280;34053;51.088;6.572;2022-11-09T03:30:09;100132.91;;;14.26;65.60
48244;BME280;34053;51.088;6.572;2022-11-09T03:32:39;100138.50;;;14.20;66.46
48244;BME280;34053;51.088;6.572;2022-11-09T03:35:10;100137.44;;;14.24;66.50
48244;BME280;34053;51.088;6.572;2022-11-09T03:37:41;100146.44;;;14.20;66.20
48244;BME280;34053;51.088;6.572;2022-11-09T03:40:11;100144.91;;;14.15;66.48
48244;BME280;34053;51.088;6.572;2022-11-09T03:42:43;100145.34;;;14.24;66.39
48244;BME280;34053;51.088;6.572;2022-11-09T03:45:15;100149.84;;;14.22;66.32
48244;BME280;34053;51.088;6.572;2022-11-09T03:47:46;100156.91;;;14.21;66.38
48244;BME280;34053;51.088;6.572;2022-11-09T03:50:17;100150.22;;;14.31;66.20
48244;BME280;34053;51.088;6.572;2022-11-09T03:52:47;100159.47;;;14.23;66.35
48244;BME280;34053;51.088;6.572;2022-11-09T03:55:18;100161.31;;;14.21;66.42
48244;BME280;34053;51.088;6.572;2022-11-09T03:57:49;100168.16;;;14.25;66.36
48244;BME280;34053;51.088;6.572;2022-11-09T04:00:21;100175.91;;;14.28;66.21
48244;BME280;34053;51.088;6.572;2022-11-09T04:02:53;100172.66;;;14.23;66.38
48244;BME280;34053;51.088;6.572;2022-11-09T04:05:25;100169.25;;;14.21;66.37
48244;BME280;34053;51.088;6.572;2022-11-09T04:07:58;100172.56;;;14.24;66.58
48244;BME280;34053;51.088;6.572;2022-11-09T04:10:29;100172.13;;;14.16;66.60
48244;BME280;34053;51.088;6.572;2022-11-09T04:13:02;100171.03;;;14.20;66.49
48244;BME280;34053;51.088;6.572;2022-11-09T04:15:32;100172.50;;;14.26;66.37
48244;BME280;34053;51.088;6.572;2022-11-09T04:18:03;100168.78;;;14.30;66.22
48244;BME280;34053;51.088;6.572;2022-11-09T04:20:33;100176.69;;;14.30;66.37
48244;BME280;34053;51.088;6.572;2022-11-09T04:23:05;100174.06;;;14.30;66.36
48244;BME280;34053;51.088;6.572;2022-11-09T04:25:41;100179.47;;;14.27;66.57
48244;BME280;34053;51.088;6.572;2022-11-09T04:28:12;100177.25;;;14.19;66.66
48244;BME280;34053;51.088;6.572;2022-11-09T04:30:43;100178.97;;;14.20;66.40
48244;BME280;34053;51.088;6.572;2022-11-09T04:33:13;100182.91;;;14.29;66.66
48244;BME280;34053;51.088;6.572;2022-11-09T04:35:44;100185.53;;;14.11;66.56
48244;BME280;34053;51.088;6.572;2022-11-09T04:38:14;100185.22;;;14.17;66.50
48244;BME280;34053;51.088;6.572;2022-11-09T04:40:45;100186.41;;;14.12;67.30
48244;BME280;34053;51.088;6.572;2022-11-09T04:43:15;100191.59;;;14.13;66.82
48244;BME280;34053;51.088;6.572;2022-11-09T04:45:46;100188.03;;;14.14;66.92
48244;BME280;34053;51.088;6.572;2022-11-09T04:48:17;100190.13;;;14.08;67.23
48244;BME280;34053;51.088;6.572;2022-11-09T04:50:48;100193.06;;;14.19;66.92
48244;BME280;34053;51.088;6.572;2022-11-09T04:53:18;100189.19;;;14.09;67.36
48244;BME280;34053;51.088;6.572;2022-11-09T04:55:49;100189.88;;;14.30;66.66
48244;BME280;34053;51.088;6.572;2022-11-09T04:58:20;100192.59;;;14.11;67.32
48244;BME280;34053;51.088;6.572;2022-11-09T05:00:51;100201.22;;;14.14;67.64
48244;BME280;34053;51.088;6.572;2022-11-09T05:03:22;100200.53;;;14.11;67.86
48244;BME280;34053;51.088;6.572;2022-11-09T05:05:52;100208.56;;;14.08;68.04
48244;BME280;34053;51.088;6.572;2022-11-09T05:08:23;100210.06;;;14.13;67.87
48244;BME280;34053;51.088;6.572;2022-11-09T05:10:57;100208.25;;;14.14;67.89
48244;BME280;34053;51.088;6.572;2022-11-09T05:13:28;100208.50;;;14.09;68.36
48244;BME280;34053;51.088;6.572;2022-11-09T05:16:00;100203.31;;;14.08;68.40
48244;BME280;34053;51.088;6.572;2022-11-09T05:18:30;100206.16;;;14.03;68.52
48244;BME280;34053;51.088;6.572;2022-11-09T05:21:01;100203.16;;;14.11;68.08
48244;BME280;34053;51.088;6.572;2022-11-09T05:23:32;100200.06;;;14.03;68.35
48244;BME280;34053;51.088;6.572;2022-11-09T05:26:21;100199.97;;;14.04;68.38
48244;BME280;34053;51.088;6.572;2022-11-09T05:28:52;100202.38;;;14.09;68.19
48244;BME280;34053;51.088;6.572;2022-11-09T05:31:23;100212.09;;;14.08;68.16
48244;BME280;34053;51.088;6.572;2022-11-09T05:33:54;100194.22;;;14.13;67.79
48244;BME280;34053;51.088;6.572;2022-11-09T05:36:25;100196.03;;;14.13;67.80
48244;BME280;34053;51.088;6.572;2022-11-09T05:38:57;100199.38;;;14.16;68.04
48244;BME280;34053;51.088;6.572;2022-11-09T05:41:27;100192.38;;;14.15;68.16
48244;BME280;34053;51.088;6.572;2022-11-09T05:43:58;100193.06;;;14.19;68.13
48244;BME280;34053;51.088;6.572;2022-11-09T05:46:29;100203.22;;;14.09;68.31
48244;BME280;34053;51.088;6.572;2022-11-09T05:49:01;100194.16;;;14.15;68.06
48244;BME280;34053;51.088;6.572;2022-11-09T05:51:31;100200.53;;;14.11;68.29
48244;BME280;34053;51.088;6.572;2022-11-09T05:54:07;100201.53;;;14.08;68.26
48244;BME280;34053;51.088;6.572;2022-11-09T05:56:38;100203.22;;;14.09;68.37
48244;BME280;34053;51.088;6.572;2022-11-09T05:59:09;100198.50;;;14.16;68.44
48244;BME280;34053;51.088;6.572;2022-11-09T06:01:39;100197.25;;;14.23;67.98
48244;BME280;34053;51.088;6.572;2022-11-09T06:04:11;100197.25;;;14.06;68.98
48244;BME280;34053;51.088;6.572;2022-11-09T06:06:42;100198.72;;;13.94;69.93
48244;BME280;34053;51.088;6.572;2022-11-09T06:09:13;100197.09;;;14.09;68.65
48244;BME280;34053;51.088;6.572;2022-11-09T06:11:44;100197.81;;;14.12;69.00
48244;BME280;34053;51.088;6.572;2022-11-09T06:14:14;100207.75;;;14.07;69.43
48244;BME280;34053;51.088;6.572;2022-11-09T06:16:45;100201.84;;;14.20;68.53
48244;BME280;34053;51.088;6.572;2022-11-09T06:19:15;100210.84;;;13.98;69.88
48244;BME280;34053;51.088;6.572;2022-11-09T06:21:46;100205.84;;;14.09;69.12
48244;BME280;34053;51.088;6.572;2022-11-09T06:24:17;100203.22;;;14.09;68.94
48244;BME280;34053;51.088;6.572;2022-11-09T06:26:48;100206.25;;;14.01;69.15
48244;BME280;34053;51.088;6.572;2022-11-09T06:29:18;100203.53;;;14.03;68.77
48244;BME280;34053;51.088;6.572;2022-11-09T06:31:49;100210.03;;;13.96;69.34
48244;BME280;34053;51.088;6.572;2022-11-09T06:34:20;100215.56;;;14.09;69.00
48244;BME280;34053;51.088;6.572;2022-11-09T06:36:51;100216.50;;;14.08;68.67
48244;BME280;34053;51.088;6.572;2022-11-09T06:39:22;100208.16;;;13.80;69.19
48244;BME280;34053;51.088;6.572;2022-11-09T06:41:52;100216.66;;;13.68;69.44
48244;BME280;34053;51.088;6.572;2022-11-09T06:44:23;100223.41;;;13.74;69.14
48244;BME280;34053;51.088;6.572;2022-11-09T06:46:53;100230.31;;;13.59;69.49
48244;BME280;34053;51.088;6.572;2022-11-09T06:49:24;100235.34;;;13.63;69.27
48244;BME280;34053;51.088;6.572;2022-11-09T06:51:55;100236.56;;;13.75;68.88
48244;BME280;34053;51.088;6.572;2022-11-09T06:54:25;100239.72;;;13.82;68.48
48244;BME280;34053;51.088;6.572;2022-11-09T06:56:57;100243.22;;;13.82;68.96
48244;BME280;34053;51.088;6.572;2022-11-09T06:59:27;100241.81;;;13.75;69.07
48244;BME280;34053;51.088;6.572;2022-11-09T07:01:58;100245.00;;;13.82;68.63
48244;BME280;34053;51.088;6.572;2022-11-09T07:04:29;100242.31;;;13.83;68.82
48244;BME280;34053;51.088;6.572;2022-11-09T07:06:59;100265.16;;;13.83;68.71
48244;BME280;34053;51.088;6.572;2022-11-09T07:09:30;100255.50;;;13.83;68.80
48244;BME280;34053;51.088;6.572;2022-11-09T07:12:00;100257.75;;;13.91;68.95
48244;BME280;34053;51.088;6.572;2022-11-09T07:14:31;100256.25;;;13.85;68.80
48244;BME280;34053;51.088;6.572;2022-11-09T07:17:20;100264.63;;;13.94;68.67
48244;BME280;34053;51.088;6.572;2022-11-09T07:19:51;100268.03;;;13.78;69.45
48244;BME280;34053;51.088;6.572;2022-11-09T07:22:21;100269.31;;;13.89;68.96
48244;BME280;34053;51.088;6.572;2022-11-09T07:24:52;100267.59;;;13.88;69.34
48244;BME280;34053;51.088;6.572;2022-11-09T07:27:22;100274.16;;;13.79;69.35
48244;BME280;34053;51.088;6.572;2022-11-09T07:29:53;100265.69;;;13.72;69.52
48244;BME280;34053;51.088;6.572;2022-11-09T07:32:23;100278.56;;;13.78;69.25
48244;BME280;34053;51.088;6.572;2022-11-09T07:34:54;100272.28;;;13.81;69.14
48244;BME280;34053;51.088;6.572;2022-11-09T07:37:24;100267.75;;;13.65;70.53
48244;BME280;34053;51.088;6.572;2022-11-09T07:39:55;100266.75;;;13.68;69.91
48244;BME280;34053;51.088;6.572;2022-11-09T07:42:26;100275.31;;;13.73;69.58
48244;BME280;34053;51.088;6.572;2022-11-09T07:44:56;100276.09;;;13.75;69.43
48244;BME280;34053;51.088;6.572;2022-11-09T07:47:27;100278.84;;;13.91;69.02
48244;BME280;34053;51.088;6.572;2022-11-09T07:49:58;100284.28;;;13.69;69.97
48244;BME280;34053;51.088;6.572;2022-11-09T07:52:28;100294.34;;;13.80;69.33
48244;BME280;34053;51.088;6.572;2022-11-09T07:54:59;100300.38;;;13.82;69.40
48244;BME280;34053;51.088;6.572;2022-11-09T07:57:29;100293.59;;;13.76;69.52
48244;BME280;34053;51.088;6.572;2022-11-09T08:00:00;100292.88;;;13.73;69.73
48244;BME280;34053;51.088;6.572;2022-11-09T08:02:30;100297.03;;;13.78;70.01
48244;BME280;34053;51.088;6.572;2022-11-09T08:05:01;100302.38;;;13.77;69.83
48244;BME280;34053;51.088;6.572;2022-11-09T08:07:33;100305.38;;;13.69;70.71
48244;BME280;34053;51.088;6.572;2022-11-09T08:10:04;100304.16;;;13.76;69.41
48244;BME280;34053;51.088;6.572;2022-11-09T08:12:34;100303.66;;;13.68;70.71
48244;BME280;34053;51.088;6.572;2022-11-09T08:15:05;100303.59;;;13.69;70.85
48244;BME280;34053;51.088;6.572;2022-11-09T08:17:36;100311.94;;;13.79;70.13
48244;BME280;34053;51.088;6.572;2022-11-09T08:20:07;100299.13;;;13.72;70.05
48244;BME280;34053;51.088;6.572;2022-11-09T08:22:42;100304.22;;;13.75;70.50
48244;BME280;34053;51.088;6.572;2022-11-09T08:25:13;100308.94;;;13.68;70.45
48244;BME280;34053;51.088;6.572;2022-11-09T08:27:44;100313.78;;;13.77;70.34
48244;BME280;34053;51.088;6.572;2022-11-09T08:30:17;100313.84;;;13.76;70.01
48244;BME280;34053;51.088;6.572;2022-11-09T08:32:48;100314.06;;;13.71;70.71
48244;BME280;34053;51.088;6.572;2022-11-09T08:35:21;100310.06;;;13.81;70.36
48244;BME280;34053;51.088;6.572;2022-11-09T08:37:53;100320.75;;;13.78;70.41
48244;BME280;34053;51.088;6.572;2022-11-09T08:40:25;100319.13;;;13.76;70.50
48244;BME280;34053;51.088;6.572;2022-11-09T08:43:04;100319.22;;;13.74;70.45
48244;BME280;34053;51.088;6.572;2022-11-09T08:45:36;100320.22;;;13.72;70.55
48244;BME280;34053;51.088;6.572;2022-11-09T08:48:08;100322.59;;;13.76;70.35
48244;BME280;34053;51.088;6.572;2022-11-09T08:50:39;100316.13;;;13.64;70.80
48244;BME280;34053;51.088;6.572;2022-11-09T08:53:10;100322.59;;;13.76;69.43
48244;BME280;34053;51.088;6.572;2022-11-09T08:55:41;100324.19;;;13.80;69.27
48244;BME280;34053;51.088;6.572;2022-11-09T08:58:11;100323.56;;;13.75;69.40
48244;BME280;34053;51.088;6.572;2022-11-09T09:00:42;100319.22;;;13.74;69.19
48244;BME280;34053;51.088;6.572;2022-11-09T09:03:12;100324.41;;;13.76;69.28
48244;BME280;34053;51.088;6.572;2022-11-09T09:05:43;100327.75;;;13.79;68.91
48244;BME280;34053;51.088;6.572;2022-11-09T09:08:14;100333.44;;;13.70;68.37
48244;BME280;34053;51.088;6.572;2022-11-09T09:10:45;100336.75;;;13.75;68.13
48244;BME280;34053;51.088;6.572;2022-11-09T09:13:17;100327.75;;;13.79;68.24
48244;BME280;34053;51.088;6.572;2022-11-09T09:15:48;100339.38;;;13.75;67.91
48244;BME280;34053;51.088;6.572;2022-11-09T09:18:19;100331.19;;;13.81;67.82
48244;BME280;34053;51.088;6.572;2022-11-09T09:20:50;100336.44;;;13.81;67.29
48244;BME280;34053;51.088;6.572;2022-11-09T09:23:20;100338.41;;;13.76;66.68
48244;BME280;34053;51.088;6.572;2022-11-09T09:25:51;100331.19;;;13.81;67.73
48244;BME280;34053;51.088;6.572;2022-11-09T09:28:22;100338.16;;;13.82;66.24
48244;BME280;34053;51.088;6.572;2022-11-09T09:30:52;100332.81;;;13.84;66.16
48244;BME280;34053;51.088;6.572;2022-11-09T09:33:23;100343.13;;;13.89;66.32
48244;BME280;34053;51.088;6.572;2022-11-09T09:35:55;100361.31;;;13.95;66.27
48244;BME280;34053;51.088;6.572;2022-11-09T09:38:27;100348.84;;;13.79;64.96
48244;BME280;34053;51.088;6.572;2022-11-09T09:41:04;100364.38;;;13.85;64.50
48244;BME280;34053;51.088;6.572;2022-11-09T09:43:42;100350.06;;;13.72;63.93
48244;BME280;34053;51.088;6.572;2022-11-09T09:49:00;100372.06;;;13.90;64.94
48244;BME280;34053;51.088;6.572;2022-11-09T09:54:41;100383.63;;;13.88;63.98
48244;BME280;34053;51.088;6.572;2022-11-09T09:57:18;100380.34;;;13.82;64.03
48244;BME280;34053;51.088;6.572;2022-11-09T09:59:51;100394.16;;;13.88;64.24
48244;BME280;34053;51.088;6.572;2022-11-09T10:02:25;100391.16;;;13.76;64.21
48244;BME280;34053;51.088;6.572;2022-11-09T10:05:01;100396.50;;;13.75;64.03
48244;BME280;34053;51.088;6.572;2022-11-09T10:07:41;100398.44;;;13.71;64.17
48244;BME280;34053;51.088;6.572;2022-11-09T10:29:40;100409.53;;;13.59;63.65
48244;BME280;34053;51.088;6.572;2022-11-09T10:32:21;100411.31;;;13.58;64.03
48244;BME280;34053;51.088;6.572;2022-11-09T10:35:30;100413.88;;;13.60;64.02
48244;BME280;34053;51.088;6.572;2022-11-09T10:38:03;100416.28;;;13.64;63.71
48244;BME280;34053;51.088;6.572;2022-11-09T10:40:41;100416.03;;;13.71;64.13
48244;BME280;34053;51.088;6.572;2022-11-09T10:43:13;100414.53;;;13.65;63.64
48244;BME280;34053;51.088;6.572;2022-11-09T10:45:57;100415.59;;;13.61;63.92
48244;BME280;34053;51.088;6.572;2022-11-09T10:48:37;100416.59;;;13.77;63.77
48244;BME280;34053;51.088;6.572;2022-11-09T10:51:32;100419.25;;;13.77;63.37
48244;BME280;34053;51.088;6.572;2022-11-09T10:54:34;100409.50;;;13.79;63.26
48244;BME280;34053;51.088;6.572;2022-11-09T10:57:16;100415.34;;;13.86;63.14
48244;BME280;34053;51.088;6.572;2022-11-09T10:59:53;100412.41;;;13.92;62.98
48244;BME280;34053;51.088;6.572;2022-11-09T11:07:36;100412.22;;;13.97;61.68
48244;BME280;34053;51.088;6.572;2022-11-09T11:13:18;100409.06;;;14.08;61.45
48244;BME280;34053;51.088;6.572;2022-11-09T11:15:50;100409.25;;;14.22;61.27
48244;BME280;34053;51.088;6.572;2022-11-09T11:18:25;100411.06;;;14.22;61.35
48244;BME280;34053;51.088;6.572;2022-11-09T11:21:05;100404.69;;;14.26;60.88
48244;BME280;34053;51.088;6.572;2022-11-09T11:23:37;100416.75;;;14.31;61.18
48244;BME280;34053;51.088;6.572;2022-11-09T11:29:45;100409.75;;;14.50;59.00
48244;BME280;34053;51.088;6.572;2022-11-09T11:32:19;100408.66;;;14.54;59.41
48244;BME280;34053;51.088;6.572;2022-11-09T11:34:49;100405.31;;;14.50;58.99
48244;BME280;34053;51.088;6.572;2022-11-09T11:37:57;100411.16;;;14.57;59.09
48244;BME280;34053;51.088;6.572;2022-11-09T11:51:57;100415.41;;;14.96;57.67
48244;BME280;34053;51.088;6.572;2022-11-09T12:08:17;100409.81;;;15.37;54.41
48244;BME280;34053;51.088;6.572;2022-11-09T12:19:55;100416.59;;;15.08;55.25
48244;BME280;34053;51.088;6.572;2022-11-09T12:22:49;100414.78;;;15.08;54.75
48244;BME280;34053;51.088;6.572;2022-11-09T12:25:59;100422.50;;;14.95;55.61
48244;BME280;34053;51.088;6.572;2022-11-09T12:28:53;100418.44;;;14.88;55.96
48244;BME280;34053;51.088;6.572;2022-11-09T12:34:17;100433.00;;;14.97;56.30
48244;BME280;34053;51.088;6.572;2022-11-09T12:37:04;100422.31;;;14.81;56.65
48244;BME280;34053;51.088;6.572;2022-11-09T12:42:19;100434.91;;;14.76;56.86
48244;BME280;34053;51.088;6.572;2022-11-09T12:47:43;100426.84;;;14.60;56.74
48244;BME280;34053;51.088;6.572;2022-11-09T12:50:19;100438.84;;;14.67;56.68
48244;BME280;34053;51.088;6.572;2022-11-09T12:52:51;100434.84;;;14.58;57.06
48244;BME280;34053;51.088;6.572;2022-11-09T12:56:01;100444.47;;;14.59;57.42
48244;BME280;34053;51.088;6.572;2022-11-09T12:58:36;100440.47;;;14.51;57.42
48244;BME280;34053;51.088;6.572;2022-11-09T13:01:13;100447.47;;;14.52;57.70
48244;BME280;34053;51.088;6.572;2022-11-09T13:04:17;100434.19;;;14.72;57.37
48244;BME280;34053;51.088;6.572;2022-11-09T13:07:18;100439.56;;;14.71;57.49
48244;BME280;34053;51.088;6.572;2022-11-09T13:09:59;100437.91;;;14.68;57.56
48244;BME280;34053;51.088;6.572;2022-11-09T13:12:36;100447.91;;;14.61;58.01
48244;BME280;34053;51.088;6.572;2022-11-09T13:15:25;100450.19;;;14.69;57.73
48244;BME280;34053;51.088;6.572;2022-11-09T13:18:23;100445.59;;;14.73;57.78
48244;BME280;34053;51.088;6.572;2022-11-09T13:20:54;100451.69;;;14.75;58.18
48244;BME280;34053;51.088;6.572;2022-11-09T13:23:27;100453.88;;;14.65;58.87
48244;BME280;34053;51.088;6.572;2022-11-09T13:25:58;100447.25;;;14.56;59.12
48244;BME280;34053;51.088;6.572;2022-11-09T13:30:59;100459.44;;;14.59;58.41
48244;BME280;34053;51.088;6.572;2022-11-09T13:33:33;100459.75;;;14.72;58.32
48244;BME280;34053;51.088;6.572;2022-11-09T13:38:37;100459.47;;;14.78;56.81
48244;BME280;34053;51.088;6.572;2022-11-09T13:44:14;100458.59;;;14.58;58.36
48244;BME280;34053;51.088;6.572;2022-11-09T13:46:47;100460.53;;;14.55;58.14
48244;BME280;34053;51.088;6.572;2022-11-09T13:52:40;100469.47;;;14.71;58.96
48244;BME280;34053;51.088;6.572;2022-11-09T13:55:20;100473.72;;;14.74;58.22
48244;BME280;34053;51.088;6.572;2022-11-09T13:57:58;100476.59;;;14.69;58.08
48244;BME280;34053;51.088;6.572;2022-11-09T14:00:30;100476.69;;;14.68;58.17
48244;BME280;34053;51.088;6.572;2022-11-09T14:03:11;100474.59;;;14.74;57.42
48244;BME280;34053;51.088;6.572;2022-11-09T14:05:49;100476.38;;;14.55;57.26
48244;BME280;34053;51.088;6.572;2022-11-09T14:08:32;100476.47;;;14.53;57.48
48244;BME280;34053;51.088;6.572;2022-11-09T14:23:26;100491.56;;;14.30;58.43
48244;BME280;34053;51.088;6.572;2022-11-09T14:26:05;100497.34;;;14.20;58.58
48244;BME280;34053;51.088;6.572;2022-11-09T14:28:37;100495.38;;;14.25;59.00
48244;BME280;34053;51.088;6.572;2022-11-09T14:31:28;100502.63;;;14.20;59.22
48244;BME280;34053;51.088;6.572;2022-11-09T14:34:04;100497.84;;;14.28;59.43
48244;BME280;34053;51.088;6.572;2022-11-09T14:36:39;100502.56;;;14.21;59.67
48244;BME280;34053;51.088;6.572;2022-11-09T14:39:30;100503.41;;;14.22;59.42
48244;BME280;34053;51.088;6.572;2022-11-09T14:42:05;100514.97;;;14.19;59.28
48244;BME280;34053;51.088;6.572;2022-11-09T14:44:41;100518.31;;;14.23;59.33
48244;BME280;34053;51.088;6.572;2022-11-09T14:47:28;100510.53;;;14.20;59.47
48244;BME280;34053;51.088;6.572;2022-11-09T14:49:59;100527.09;;;14.23;59.61
48244;BME280;34053;51.088;6.572;2022-11-09T14:52:31;100527.25;;;14.20;59.91
48244;BME280;34053;51.088;6.572;2022-11-09T14:55:02;100528.47;;;14.32;60.11
48244;BME280;34053;51.088;6.572;2022-11-09T14:57:35;100528.09;;;14.21;60.71
48244;BME280;34053;51.088;6.572;2022-11-09T15:00:22;100525.56;;;14.17;60.73
48244;BME280;34053;51.088;6.572;2022-11-09T15:02:55;100536.56;;;14.08;60.62
48244;BME280;34053;51.088;6.572;2022-11-09T15:05:29;100543.69;;;14.06;60.92
48244;BME280;34053;51.088;6.572;2022-11-09T15:08:12;100552.31;;;14.10;60.77
48244;BME280;34053;51.088;6.572;2022-11-09T15:10:48;100548.56;;;14.15;60.88